sensor_id;sensor_type;location;lat;lon;timestamp;pressure;altitude;pressure_sealevel;temperature;humidity
61359;BME280;47228;46.762;23.598;2023-01-28T00:01:16;96885.18;;;0.78;87.29
61359;BME280;47228;46.762;23.598;2023-01-28T00:03:44;96888.25;;;0.79;87.29
61359;BME280;47228;46.762;23.598;2023-01-28T00:06:13;96885.98;;;0.81;87.39
61359;BME280;47228;46.762;23.598;2023-01-28T00:08:42;96886.13;;;0.83;87.46
61359;BME280;47228;46.762;23.598;2023-01-28T00:11:11;96888.98;;;0.82;87.43
61359;BME280;47228;46.762;23.598;2023-01-28T00:13:40;96889.48;;;0.81;87.51
61359;BME280;47228;46.762;23.598;2023-01-28T00:16:08;96888.01;;;0.82;87.54
61359;BME280;47228;46.762;23.598;2023-01-28T00:18:37;96891.04;;;0.81;87.54
61359;BME280;47228;46.762;23.598;2023-01-28T00:21:12;96891.77;;;0.81;87.49
61359;BME280;47228;46.762;23.598;2023-01-28T00:23:42;96895.98;;;0.82;87.53
61359;BME280;47228;46.762;23.598;2023-01-28T00:26:14;96895.80;;;0.82;87.19
61359;BME280;47228;46.762;23.598;2023-01-28T00:28:42;96897.68;;;0.81;87.06
61359;BME280;47228;46.762;23.598;2023-01-28T00:31:19;96896.20;;;0.78;87.22
61359;BME280;47228;46.762;23.598;2023-01-28T00:33:48;96896.52;;;0.77;87.37
61359;BME280;47228;46.762;23.598;2023-01-28T00:36:18;96898.70;;;0.76;87.56
61359;BME280;47228;46.762;23.598;2023-01-28T00:38:57;96897.48;;;0.72;87.14
61359;BME280;47228;46.762;23.598;2023-01-28T00:41:27;96895.46;;;0.64;87.01
61359;BME280;47228;46.762;23.598;2023-01-28T00:43:56;96895.45;;;0.59;87.41
61359;BME280;47228;46.762;23.598;2023-01-28T00:46:24;96896.70;;;0.57;87.61
61359;BME280;47228;46.762;23.598;2023-01-28T00:48:55;96900.08;;;0.59;88.30
61359;BME280;47228;46.762;23.598;2023-01-28T00:51:23;96897.77;;;0.66;88.39
61359;BME280;47228;46.762;23.598;2023-01-28T00:53:51;96899.93;;;0.69;87.95
61359;BME280;47228;46.762;23.598;2023-01-28T00:56:20;96899.92;;;0.70;88.09
61359;BME280;47228;46.762;23.598;2023-01-28T00:58:48;96898.80;;;0.73;88.15
61359;BME280;47228;46.762;23.598;2023-01-28T01:01:19;96898.21;;;0.77;88.33
61359;BME280;47228;46.762;23.598;2023-01-28T01:03:48;96897.65;;;0.81;88.04
61359;BME280;47228;46.762;23.598;2023-01-28T01:06:24;96899.52;;;0.83;87.93
61359;BME280;47228;46.762;23.598;2023-01-28T01:08:52;96899.08;;;0.86;88.09
61359;BME280;47228;46.762;23.598;2023-01-28T01:11:20;96898.76;;;0.89;88.05
61359;BME280;47228;46.762;23.598;2023-01-28T01:13:56;96900.30;;;0.91;87.87
61359;BME280;47228;46.762;23.598;2023-01-28T01:16:27;96901.38;;;0.91;87.73
61359;BME280;47228;46.762;23.598;2023-01-28T01:18:56;96900.39;;;0.90;87.70
61359;BME280;47228;46.762;23.598;2023-01-28T01:21:27;96902.79;;;0.91;87.47
61359;BME280;47228;46.762;23.598;2023-01-28T01:23:56;96901.87;;;0.92;87.46
61359;BME280;47228;46.762;23.598;2023-01-28T01:26:24;96904.07;;;0.92;87.26
61359;BME280;47228;46.762;23.598;2023-01-28T01:28:54;96902.55;;;0.89;87.18
61359;BME280;47228;46.762;23.598;2023-01-28T01:31:23;96901.57;;;0.89;87.16
61359;BME280;47228;46.762;23.598;2023-01-28T01:33:51;96901.55;;;0.87;86.97
61359;BME280;47228;46.762;23.598;2023-01-28T01:36:20;96906.55;;;0.84;86.86
61359;BME280;47228;46.762;23.598;2023-01-28T01:38:52;96909.88;;;0.83;86.94
61359;BME280;47228;46.762;23.598;2023-01-28T01:41:29;96909.99;;;0.81;87.21
61359;BME280;47228;46.762;23.598;2023-01-28T01:44:03;96910.56;;;0.83;87.44
61359;BME280;47228;46.762;23.598;2023-01-28T01:46:38;96912.44;;;0.83;87.23
61359;BME280;47228;46.762;23.598;2023-01-28T01:51:46;96917.17;;;0.83;87.38
61359;BME280;47228;46.762;23.598;2023-01-28T01:54:16;96916.98;;;0.83;87.17
61359;BME280;47228;46.762;23.598;2023-01-28T01:56:46;96918.21;;;0.83;87.20
61359;BME280;47228;46.762;23.598;2023-01-28T01:59:21;96916.04;;;0.84;87.34
61359;BME280;47228;46.762;23.598;2023-01-28T02:01:51;96918.27;;;0.86;87.35
61359;BME280;47228;46.762;23.598;2023-01-28T02:04:25;96913.84;;;0.86;87.22
61359;BME280;47228;46.762;23.598;2023-01-28T02:06:54;96908.45;;;0.86;87.08
61359;BME280;47228;46.762;23.598;2023-01-28T02:09:30;96908.34;;;0.86;86.94
61359;BME280;47228;46.762;23.598;2023-01-28T02:12:02;96909.66;;;0.83;86.67
61359;BME280;47228;46.762;23.598;2023-01-28T02:14:34;96917.66;;;0.80;86.37
61359;BME280;47228;46.762;23.598;2023-01-28T02:17:04;96920.15;;;0.75;86.41
61359;BME280;47228;46.762;23.598;2023-01-28T02:19:59;96922.14;;;0.75;86.68
61359;BME280;47228;46.762;23.598;2023-01-28T02:35:53;96916.95;;;0.54;86.76
61359;BME280;47228;46.762;23.598;2023-01-28T02:38:28;96920.23;;;0.51;86.65
61359;BME280;47228;46.762;23.598;2023-01-28T02:41:04;96917.06;;;0.48;86.61
61359;BME280;47228;46.762;23.598;2023-01-28T02:43:44;96916.38;;;0.44;86.70
61359;BME280;47228;46.762;23.598;2023-01-28T02:46:33;96916.38;;;0.39;86.64
61359;BME280;47228;46.762;23.598;2023-01-28T02:49:30;96911.85;;;0.31;86.78
61359;BME280;47228;46.762;23.598;2023-01-28T02:55:00;96912.25;;;0.29;87.35
61359;BME280;47228;46.762;23.598;2023-01-28T02:57:42;96906.25;;;0.30;87.59
61359;BME280;47228;46.762;23.598;2023-01-28T03:05:38;96905.86;;;0.38;87.20
61359;BME280;47228;46.762;23.598;2023-01-28T03:08:09;96906.43;;;0.35;87.11
61359;BME280;47228;46.762;23.598;2023-01-28T03:11:03;96906.08;;;0.32;87.14
61359;BME280;47228;46.762;23.598;2023-01-28T03:13:50;96906.91;;;0.34;87.69
61359;BME280;47228;46.762;23.598;2023-01-28T03:16:37;96909.59;;;0.39;88.05
61359;BME280;47228;46.762;23.598;2023-01-28T03:19:24;96914.30;;;0.46;88.21
61359;BME280;47228;46.762;23.598;2023-01-28T03:22:10;96914.56;;;0.52;88.22
61359;BME280;47228;46.762;23.598;2023-01-28T03:24:58;96916.88;;;0.57;87.80
61359;BME280;47228;46.762;23.598;2023-01-28T03:27:59;96913.34;;;0.59;87.88
61359;BME280;47228;46.762;23.598;2023-01-28T03:30:56;96915.14;;;0.64;88.13
61359;BME280;47228;46.762;23.598;2023-01-28T03:33:44;96909.38;;;0.68;87.81
61359;BME280;47228;46.762;23.598;2023-01-28T03:36:31;96911.27;;;0.66;87.01
61359;BME280;47228;46.762;23.598;2023-01-28T03:39:15;96910.89;;;0.59;86.58
61359;BME280;47228;46.762;23.598;2023-01-28T03:42:06;96912.02;;;0.57;87.10
61359;BME280;47228;46.762;23.598;2023-01-28T03:44:35;96916.75;;;0.58;87.27
61359;BME280;47228;46.762;23.598;2023-01-28T03:47:24;96919.30;;;0.57;87.00
61359;BME280;47228;46.762;23.598;2023-01-28T03:49:54;96922.21;;;0.54;87.19
61359;BME280;47228;46.762;23.598;2023-01-28T03:52:28;96918.40;;;0.52;87.20
61359;BME280;47228;46.762;23.598;2023-01-28T03:54:57;96917.73;;;0.50;87.05
61359;BME280;47228;46.762;23.598;2023-01-28T03:57:26;96916.88;;;0.50;87.14
61359;BME280;47228;46.762;23.598;2023-01-28T03:59:54;96918.62;;;0.50;87.07
61359;BME280;47228;46.762;23.598;2023-01-28T04:02:22;96922.40;;;0.47;86.93
61359;BME280;47228;46.762;23.598;2023-01-28T04:04:50;96921.94;;;0.46;87.21
61359;BME280;47228;46.762;23.598;2023-01-28T04:07:18;96926.65;;;0.50;87.59
61359;BME280;47228;46.762;23.598;2023-01-28T04:09:46;96928.63;;;0.53;87.47
61359;BME280;47228;46.762;23.598;2023-01-28T04:12:14;96933.45;;;0.55;87.51
61359;BME280;47228;46.762;23.598;2023-01-28T04:14:42;96936.46;;;0.56;87.51
61359;BME280;47228;46.762;23.598;2023-01-28T04:17:10;96936.95;;;0.59;87.74
61359;BME280;47228;46.762;23.598;2023-01-28T04:19:38;96938.58;;;0.61;87.64
61359;BME280;47228;46.762;23.598;2023-01-28T04:22:09;96942.23;;;0.65;87.81
61359;BME280;47228;46.762;23.598;2023-01-28T04:24:38;96942.46;;;0.70;87.88
61359;BME280;47228;46.762;23.598;2023-01-28T04:27:06;96947.11;;;0.71;87.35
61359;BME280;47228;46.762;23.598;2023-01-28T04:29:34;96947.29;;;0.67;87.20
61359;BME280;47228;46.762;23.598;2023-01-28T04:32:02;96945.59;;;0.65;87.28
61359;BME280;47228;46.762;23.598;2023-01-28T04:34:30;96949.75;;;0.61;87.08
61359;BME280;47228;46.762;23.598;2023-01-28T04:36:58;96950.38;;;0.58;87.09
61359;BME280;47228;46.762;23.598;2023-01-28T04:39:25;96953.50;;;0.57;86.93
61359;BME280;47228;46.762;23.598;2023-01-28T04:41:53;96953.54;;;0.58;87.31
61359;BME280;47228;46.762;23.598;2023-01-28T04:44:21;96957.23;;;0.61;87.63
61359;BME280;47228;46.762;23.598;2023-01-28T04:46:49;96961.08;;;0.65;87.65
61359;BME280;47228;46.762;23.598;2023-01-28T04:49:17;96963.50;;;0.65;87.29
61359;BME280;47228;46.762;23.598;2023-01-28T04:51:45;96966.48;;;0.65;87.52
61359;BME280;47228;46.762;23.598;2023-01-28T04:54:13;96969.14;;;0.64;87.41
61359;BME280;47228;46.762;23.598;2023-01-28T04:56:41;96970.08;;;0.62;87.59
61359;BME280;47228;46.762;23.598;2023-01-28T04:59:09;96969.84;;;0.61;87.53
61359;BME280;47228;46.762;23.598;2023-01-28T05:01:37;96971.97;;;0.58;87.34
61359;BME280;47228;46.762;23.598;2023-01-28T05:04:04;96972.02;;;0.56;87.22
61359;BME280;47228;46.762;23.598;2023-01-28T05:06:33;96975.13;;;0.53;86.97
61359;BME280;47228;46.762;23.598;2023-01-28T05:09:01;96979.77;;;0.52;87.72
61359;BME280;47228;46.762;23.598;2023-01-28T05:11:29;96983.94;;;0.55;88.41
61359;BME280;47228;46.762;23.598;2023-01-28T05:13:57;96982.78;;;0.58;88.14
61359;BME280;47228;46.762;23.598;2023-01-28T05:16:25;96985.96;;;0.60;88.02
61359;BME280;47228;46.762;23.598;2023-01-28T05:18:53;96985.36;;;0.61;87.94
61359;BME280;47228;46.762;23.598;2023-01-28T05:21:20;96983.31;;;0.62;87.75
61359;BME280;47228;46.762;23.598;2023-01-28T05:23:48;96983.77;;;0.63;87.76
61359;BME280;47228;46.762;23.598;2023-01-28T05:26:16;96983.55;;;0.65;87.87
61359;BME280;47228;46.762;23.598;2023-01-28T05:28:44;96987.67;;;0.68;88.03
61359;BME280;47228;46.762;23.598;2023-01-28T05:31:13;96988.79;;;0.72;88.29
61359;BME280;47228;46.762;23.598;2023-01-28T05:33:41;96988.40;;;0.76;88.37
61359;BME280;47228;46.762;23.598;2023-01-28T05:36:09;96989.11;;;0.78;88.06
61359;BME280;47228;46.762;23.598;2023-01-28T05:38:37;96993.04;;;0.79;87.78
61359;BME280;47228;46.762;23.598;2023-01-28T05:41:05;96997.80;;;0.78;87.51
61359;BME280;47228;46.762;23.598;2023-01-28T05:43:33;96999.96;;;0.75;86.97
61359;BME280;47228;46.762;23.598;2023-01-28T05:46:01;97002.27;;;0.73;87.16
61359;BME280;47228;46.762;23.598;2023-01-28T05:48:29;97006.04;;;0.72;87.55
61359;BME280;47228;46.762;23.598;2023-01-28T05:50:57;97002.48;;;0.73;87.69
61359;BME280;47228;46.762;23.598;2023-01-28T05:53:25;97002.35;;;0.71;87.55
61359;BME280;47228;46.762;23.598;2023-01-28T05:55:53;97005.94;;;0.68;87.49
61359;BME280;47228;46.762;23.598;2023-01-28T05:58:21;97013.77;;;0.66;87.50
61359;BME280;47228;46.762;23.598;2023-01-28T06:00:49;97016.61;;;0.66;87.66
61359;BME280;47228;46.762;23.598;2023-01-28T06:03:17;97013.80;;;0.66;87.63
61359;BME280;47228;46.762;23.598;2023-01-28T06:05:46;97013.76;;;0.68;88.04
61359;BME280;47228;46.762;23.598;2023-01-28T06:08:15;97016.98;;;0.69;87.84
61359;BME280;47228;46.762;23.598;2023-01-28T06:10:43;97022.00;;;0.70;87.75
61359;BME280;47228;46.762;23.598;2023-01-28T06:13:11;97025.21;;;0.69;87.85
61359;BME280;47228;46.762;23.598;2023-01-28T06:15:39;97027.20;;;0.70;88.19
61359;BME280;47228;46.762;23.598;2023-01-28T06:18:07;97030.73;;;0.73;88.28
61359;BME280;47228;46.762;23.598;2023-01-28T06:20:34;97037.44;;;0.74;87.74
61359;BME280;47228;46.762;23.598;2023-01-28T06:23:02;97039.82;;;0.74;87.73
61359;BME280;47228;46.762;23.598;2023-01-28T06:25:30;97041.53;;;0.75;87.58
61359;BME280;47228;46.762;23.598;2023-01-28T06:27:58;97047.85;;;0.76;87.94
61359;BME280;47228;46.762;23.598;2023-01-28T06:30:26;97054.49;;;0.78;88.10
61359;BME280;47228;46.762;23.598;2023-01-28T06:32:54;97057.99;;;0.81;88.06
61359;BME280;47228;46.762;23.598;2023-01-28T06:35:23;97059.97;;;0.82;88.12
61359;BME280;47228;46.762;23.598;2023-01-28T06:37:53;97063.09;;;0.84;88.12
61359;BME280;47228;46.762;23.598;2023-01-28T06:40:21;97060.34;;;0.87;88.18
61359;BME280;47228;46.762;23.598;2023-01-28T06:42:52;97057.11;;;0.90;87.90
61359;BME280;47228;46.762;23.598;2023-01-28T06:45:20;97059.31;;;0.91;87.65
61359;BME280;47228;46.762;23.598;2023-01-28T06:47:48;97063.64;;;0.92;87.61
61359;BME280;47228;46.762;23.598;2023-01-28T06:50:16;97065.77;;;0.93;88.02
61359;BME280;47228;46.762;23.598;2023-01-28T06:52:44;97068.17;;;0.95;87.94
61359;BME280;47228;46.762;23.598;2023-01-28T06:55:12;97067.47;;;0.97;87.95
61359;BME280;47228;46.762;23.598;2023-01-28T06:57:41;97067.14;;;0.98;87.65
61359;BME280;47228;46.762;23.598;2023-01-28T07:00:10;97072.83;;;1.01;87.88
61359;BME280;47228;46.762;23.598;2023-01-28T07:02:40;97071.61;;;1.05;87.98
61359;BME280;47228;46.762;23.598;2023-01-28T07:05:09;97073.98;;;1.07;88.05
61359;BME280;47228;46.762;23.598;2023-01-28T07:07:37;97078.20;;;1.10;88.21
61359;BME280;47228;46.762;23.598;2023-01-28T07:10:09;97085.02;;;1.14;88.03
61359;BME280;47228;46.762;23.598;2023-01-28T07:12:38;97087.48;;;1.15;87.67
61359;BME280;47228;46.762;23.598;2023-01-28T07:15:06;97088.42;;;1.17;87.56
61359;BME280;47228;46.762;23.598;2023-01-28T07:17:38;97094.69;;;1.19;87.67
61359;BME280;47228;46.762;23.598;2023-01-28T07:20:07;97096.80;;;1.20;87.51
61359;BME280;47228;46.762;23.598;2023-01-28T07:22:36;97094.88;;;1.22;87.80
61359;BME280;47228;46.762;23.598;2023-01-28T07:25:07;97098.98;;;1.23;87.43
61359;BME280;47228;46.762;23.598;2023-01-28T07:27:35;97100.54;;;1.22;87.15
61359;BME280;47228;46.762;23.598;2023-01-28T07:30:04;97097.91;;;1.22;86.87
61359;BME280;47228;46.762;23.598;2023-01-28T07:32:32;97101.45;;;1.21;87.02
61359;BME280;47228;46.762;23.598;2023-01-28T07:35:00;97101.21;;;1.22;86.75
61359;BME280;47228;46.762;23.598;2023-01-28T07:37:27;97100.10;;;1.21;86.86
61359;BME280;47228;46.762;23.598;2023-01-28T07:39:55;97100.36;;;1.20;87.22
61359;BME280;47228;46.762;23.598;2023-01-28T07:42:23;97107.44;;;1.20;87.00
61359;BME280;47228;46.762;23.598;2023-01-28T07:44:51;97112.15;;;1.20;86.75
61359;BME280;47228;46.762;23.598;2023-01-28T07:47:19;97112.58;;;1.21;86.81
61359;BME280;47228;46.762;23.598;2023-01-28T07:49:47;97112.03;;;1.23;86.97
61359;BME280;47228;46.762;23.598;2023-01-28T07:52:15;97112.24;;;1.21;86.35
61359;BME280;47228;46.762;23.598;2023-01-28T07:54:43;97109.88;;;1.19;86.50
61359;BME280;47228;46.762;23.598;2023-01-28T07:57:11;97111.68;;;1.20;86.71
61359;BME280;47228;46.762;23.598;2023-01-28T07:59:39;97113.56;;;1.22;86.77
61359;BME280;47228;46.762;23.598;2023-01-28T08:02:10;97116.05;;;1.25;86.97
61359;BME280;47228;46.762;23.598;2023-01-28T08:04:38;97117.61;;;1.29;86.82
61359;BME280;47228;46.762;23.598;2023-01-28T08:07:07;97122.71;;;1.32;86.71
61359;BME280;47228;46.762;23.598;2023-01-28T08:09:35;97126.37;;;1.34;86.46
61359;BME280;47228;46.762;23.598;2023-01-28T08:12:03;97129.15;;;1.34;86.20
61359;BME280;47228;46.762;23.598;2023-01-28T08:14:31;97130.48;;;1.33;86.26
61359;BME280;47228;46.762;23.598;2023-01-28T08:16:59;97129.48;;;1.33;86.21
61359;BME280;47228;46.762;23.598;2023-01-28T08:19:27;97126.70;;;1.32;86.16
61359;BME280;47228;46.762;23.598;2023-01-28T08:21:55;97130.20;;;1.36;86.48
61359;BME280;47228;46.762;23.598;2023-01-28T08:24:23;97128.67;;;1.41;86.51
61359;BME280;47228;46.762;23.598;2023-01-28T08:26:51;97129.04;;;1.46;86.47
61359;BME280;47228;46.762;23.598;2023-01-28T08:29:19;97131.13;;;1.50;86.53
61359;BME280;47228;46.762;23.598;2023-01-28T08:31:47;97128.14;;;1.52;86.07
61359;BME280;47228;46.762;23.598;2023-01-28T08:34:15;97129.88;;;1.52;85.88
61359;BME280;47228;46.762;23.598;2023-01-28T08:36:43;97131.01;;;1.54;86.07
61359;BME280;47228;46.762;23.598;2023-01-28T08:39:11;97131.86;;;1.58;86.05
61359;BME280;47228;46.762;23.598;2023-01-28T08:41:38;97133.19;;;1.61;85.57
61359;BME280;47228;46.762;23.598;2023-01-28T08:44:06;97133.11;;;1.58;84.73
61359;BME280;47228;46.762;23.598;2023-01-28T08:46:34;97137.55;;;1.57;85.22
61359;BME280;47228;46.762;23.598;2023-01-28T08:49:02;97137.95;;;1.57;85.02
61359;BME280;47228;46.762;23.598;2023-01-28T08:51:30;97138.86;;;1.54;84.82
61359;BME280;47228;46.762;23.598;2023-01-28T08:53:58;97136.52;;;1.55;85.35
61359;BME280;47228;46.762;23.598;2023-01-28T08:56:27;97136.29;;;1.60;85.55
61359;BME280;47228;46.762;23.598;2023-01-28T08:58:55;97139.21;;;1.65;85.67
61359;BME280;47228;46.762;23.598;2023-01-28T09:01:23;97140.06;;;1.71;84.94
61359;BME280;47228;46.762;23.598;2023-01-28T09:03:52;97142.45;;;1.77;85.02
61359;BME280;47228;46.762;23.598;2023-01-28T09:06:20;97142.95;;;1.84;85.05
61359;BME280;47228;46.762;23.598;2023-01-28T09:08:48;97143.25;;;1.90;84.82
61359;BME280;47228;46.762;23.598;2023-01-28T09:11:16;97143.23;;;1.92;84.12
61359;BME280;47228;46.762;23.598;2023-01-28T09:13:44;97144.28;;;1.92;83.56
61359;BME280;47228;46.762;23.598;2023-01-28T09:16:12;97142.98;;;1.89;83.05
61359;BME280;47228;46.762;23.598;2023-01-28T09:18:40;97142.44;;;1.82;81.65
61359;BME280;47228;46.762;23.598;2023-01-28T09:21:09;97135.77;;;1.74;81.10
61359;BME280;47228;46.762;23.598;2023-01-28T09:23:37;97135.42;;;1.72;82.33
61359;BME280;47228;46.762;23.598;2023-01-28T09:26:05;97135.54;;;1.76;83.07
61359;BME280;47228;46.762;23.598;2023-01-28T09:28:34;97137.95;;;1.80;82.91
61359;BME280;47228;46.762;23.598;2023-01-28T09:31:07;97137.63;;;1.82;82.77
61359;BME280;47228;46.762;23.598;2023-01-28T09:33:37;97137.48;;;1.85;83.15
61359;BME280;47228;46.762;23.598;2023-01-28T09:36:07;97137.70;;;1.88;82.91
61359;BME280;47228;46.762;23.598;2023-01-28T09:38:35;97138.98;;;1.87;81.52
61359;BME280;47228;46.762;23.598;2023-01-28T09:41:26;97143.76;;;1.78;79.67
61359;BME280;47228;46.762;23.598;2023-01-28T09:44:10;97144.25;;;1.65;79.49
61359;BME280;47228;46.762;23.598;2023-01-28T09:46:42;97142.64;;;1.61;80.79
61359;BME280;47228;46.762;23.598;2023-01-28T09:49:20;97140.62;;;1.60;81.01
61359;BME280;47228;46.762;23.598;2023-01-28T09:51:53;97142.69;;;1.58;81.49
61359;BME280;47228;46.762;23.598;2023-01-28T09:54:42;97142.72;;;1.58;81.82
61359;BME280;47228;46.762;23.598;2023-01-28T09:57:18;97140.88;;;1.61;82.09
61359;BME280;47228;46.762;23.598;2023-01-28T09:59:47;97140.39;;;1.62;81.72
61359;BME280;47228;46.762;23.598;2023-01-28T10:05:24;97141.56;;;1.61;81.81
61359;BME280;47228;46.762;23.598;2023-01-28T10:08:21;97141.02;;;1.63;82.21
61359;BME280;47228;46.762;23.598;2023-01-28T10:13:55;97142.73;;;1.65;82.08
61359;BME280;47228;46.762;23.598;2023-01-28T10:16:34;97144.18;;;1.68;81.68
61359;BME280;47228;46.762;23.598;2023-01-28T10:19:20;97141.27;;;1.69;81.41
61359;BME280;47228;46.762;23.598;2023-01-28T10:21:54;97141.64;;;1.69;81.20
61359;BME280;47228;46.762;23.598;2023-01-28T10:25:01;97135.67;;;1.70;81.24
61359;BME280;47228;46.762;23.598;2023-01-28T10:27:35;97133.25;;;1.73;82.29
61359;BME280;47228;46.762;23.598;2023-01-28T10:30:20;97130.47;;;1.78;82.27
61359;BME280;47228;46.762;23.598;2023-01-28T10:35:22;97129.10;;;1.85;81.43
61359;BME280;47228;46.762;23.598;2023-01-28T10:38:00;97129.38;;;1.86;80.91
61359;BME280;47228;46.762;23.598;2023-01-28T10:40:29;97130.46;;;1.85;80.74
61359;BME280;47228;46.762;23.598;2023-01-28T10:42:57;97132.09;;;1.86;81.24
61359;BME280;47228;46.762;23.598;2023-01-28T10:45:35;97136.79;;;1.88;81.10
61359;BME280;47228;46.762;23.598;2023-01-28T10:48:18;97139.90;;;1.87;80.91
61359;BME280;47228;46.762;23.598;2023-01-28T10:50:57;97145.18;;;1.85;80.56
61359;BME280;47228;46.762;23.598;2023-01-28T10:53:36;97142.50;;;1.85;80.79
61359;BME280;47228;46.762;23.598;2023-01-28T10:56:24;97141.29;;;1.85;80.51
61359;BME280;47228;46.762;23.598;2023-01-28T10:59:06;97142.93;;;1.86;80.47
61359;BME280;47228;46.762;23.598;2023-01-28T11:01:48;97139.48;;;1.86;79.64
61359;BME280;47228;46.762;23.598;2023-01-28T11:04:25;97136.80;;;1.85;79.85
61359;BME280;47228;46.762;23.598;2023-01-28T11:07:00;97133.88;;;1.84;80.27
61359;BME280;47228;46.762;23.598;2023-01-28T11:09:36;97132.24;;;1.83;79.59
61359;BME280;47228;46.762;23.598;2023-01-28T11:15:01;97131.14;;;1.82;80.13
61359;BME280;47228;46.762;23.598;2023-01-28T11:17:33;97130.90;;;1.84;79.95
61359;BME280;47228;46.762;23.598;2023-01-28T11:20:18;97127.85;;;1.87;80.18
61359;BME280;47228;46.762;23.598;2023-01-28T11:22:48;97125.01;;;1.89;80.01
61359;BME280;47228;46.762;23.598;2023-01-28T11:27:49;97125.32;;;1.93;80.11
61359;BME280;47228;46.762;23.598;2023-01-28T11:30:23;97123.52;;;1.93;79.62
61359;BME280;47228;46.762;23.598;2023-01-28T11:33:21;97122.87;;;1.93;79.59
61359;BME280;47228;46.762;23.598;2023-01-28T11:35:56;97122.57;;;1.98;79.91
61359;BME280;47228;46.762;23.598;2023-01-28T11:38:24;97121.95;;;2.03;79.30
61359;BME280;47228;46.762;23.598;2023-01-28T11:40:55;97120.98;;;2.05;78.93
61359;BME280;47228;46.762;23.598;2023-01-28T11:43:28;97120.63;;;2.05;78.85
61359;BME280;47228;46.762;23.598;2023-01-28T12:01:44;97126.80;;;2.08;78.66
61359;BME280;47228;46.762;23.598;2023-01-28T12:07:22;97126.41;;;2.02;78.50
61359;BME280;47228;46.762;23.598;2023-01-28T12:10:03;97128.73;;;2.01;79.08
61359;BME280;47228;46.762;23.598;2023-01-28T12:21:04;97132.19;;;1.96;79.16
61359;BME280;47228;46.762;23.598;2023-01-28T12:26:34;97134.35;;;1.90;78.49
61359;BME280;47228;46.762;23.598;2023-01-28T12:29:29;97138.56;;;1.88;78.86
61359;BME280;47228;46.762;23.598;2023-01-28T12:32:03;97139.37;;;1.89;79.19
61359;BME280;47228;46.762;23.598;2023-01-28T12:34:42;97138.42;;;1.88;78.83
61359;BME280;47228;46.762;23.598;2023-01-28T12:42:41;97147.36;;;1.77;78.65
61359;BME280;47228;46.762;23.598;2023-01-28T12:45:21;97149.66;;;1.75;78.29
61359;BME280;47228;46.762;23.598;2023-01-28T12:48:00;97149.05;;;1.72;78.51
61359;BME280;47228;46.762;23.598;2023-01-28T12:50:36;97154.14;;;1.70;78.81
61359;BME280;47228;46.762;23.598;2023-01-28T12:53:36;97153.52;;;1.69;78.98
61359;BME280;47228;46.762;23.598;2023-01-28T12:56:13;97155.36;;;1.66;79.12
61359;BME280;47228;46.762;23.598;2023-01-28T13:01:20;97161.06;;;1.67;79.58
61359;BME280;47228;46.762;23.598;2023-01-28T13:07:13;97165.02;;;1.78;80.65
61359;BME280;47228;46.762;23.598;2023-01-28T13:09:51;97169.27;;;1.83;80.26
61359;BME280;47228;46.762;23.598;2023-01-28T13:12:20;97168.24;;;1.86;79.41
61359;BME280;47228;46.762;23.598;2023-01-28T13:14:49;97169.39;;;1.87;79.48
61359;BME280;47228;46.762;23.598;2023-01-28T13:17:25;97167.63;;;1.87;79.22
61359;BME280;47228;46.762;23.598;2023-01-28T13:19:53;97169.11;;;1.85;78.76
61359;BME280;47228;46.762;23.598;2023-01-28T13:22:36;97168.41;;;1.83;79.15
61359;BME280;47228;46.762;23.598;2023-01-28T13:25:24;97169.77;;;1.81;79.49
61359;BME280;47228;46.762;23.598;2023-01-28T13:27:57;97169.55;;;1.82;79.67
61359;BME280;47228;46.762;23.598;2023-01-28T13:30:28;97167.54;;;1.83;80.07
61359;BME280;47228;46.762;23.598;2023-01-28T13:33:03;97168.59;;;1.83;80.23
61359;BME280;47228;46.762;23.598;2023-01-28T13:35:35;97174.23;;;1.81;79.81
61359;BME280;47228;46.762;23.598;2023-01-28T13:38:17;97179.58;;;1.78;79.69
61359;BME280;47228;46.762;23.598;2023-01-28T13:40:57;97179.86;;;1.75;79.81
61359;BME280;47228;46.762;23.598;2023-01-28T13:43:38;97182.91;;;1.74;79.97
61359;BME280;47228;46.762;23.598;2023-01-28T13:46:14;97185.67;;;1.76;80.52
61359;BME280;47228;46.762;23.598;2023-01-28T13:48:55;97189.73;;;1.77;80.36
61359;BME280;47228;46.762;23.598;2023-01-28T13:51:29;97189.20;;;1.79;80.40
61359;BME280;47228;46.762;23.598;2023-01-28T13:56:40;97190.30;;;1.86;80.79
61359;BME280;47228;46.762;23.598;2023-01-28T14:08:08;97200.17;;;1.88;81.10
61359;BME280;47228;46.762;23.598;2023-01-28T14:11:08;97198.73;;;1.92;81.20
61359;BME280;47228;46.762;23.598;2023-01-28T14:16:43;97201.70;;;1.96;81.01
61359;BME280;47228;46.762;23.598;2023-01-28T14:19:41;97205.29;;;1.97;80.94
61359;BME280;47228;46.762;23.598;2023-01-28T14:22:17;97205.14;;;1.95;80.59
61359;BME280;47228;46.762;23.598;2023-01-28T14:24:46;97209.73;;;1.92;80.72
61359;BME280;47228;46.762;23.598;2023-01-28T14:27:35;97208.81;;;1.87;80.56
61359;BME280;47228;46.762;23.598;2023-01-28T14:30:23;97211.36;;;1.85;80.77
61359;BME280;47228;46.762;23.598;2023-01-28T14:32:53;97212.32;;;1.84;80.97
61359;BME280;47228;46.762;23.598;2023-01-28T14:35:29;97215.08;;;1.84;80.82
61359;BME280;47228;46.762;23.598;2023-01-28T14:37:58;97214.87;;;1.83;80.98
61359;BME280;47228;46.762;23.598;2023-01-28T14:40:27;97216.09;;;1.81;80.96
61359;BME280;47228;46.762;23.598;2023-01-28T14:42:57;97218.61;;;1.77;80.70
61359;BME280;47228;46.762;23.598;2023-01-28T14:45:33;97215.25;;;1.72;80.74
61359;BME280;47228;46.762;23.598;2023-01-28T14:53:59;97222.56;;;1.57;80.89
61359;BME280;47228;46.762;23.598;2023-01-28T14:59:19;97224.21;;;1.54;81.31
61359;BME280;47228;46.762;23.598;2023-01-28T15:01:55;97225.14;;;1.54;81.66
61359;BME280;47228;46.762;23.598;2023-01-28T15:06:52;97225.62;;;1.49;81.35
61359;BME280;47228;46.762;23.598;2023-01-28T15:09:21;97225.98;;;1.49;81.44
61359;BME280;47228;46.762;23.598;2023-01-28T15:11:52;97233.66;;;1.49;81.52
61359;BME280;47228;46.762;23.598;2023-01-28T15:14:26;97238.88;;;1.49;81.52